Quick Links (Output Below):   Max & Min Temps   /   Climate Reports   /   Zone Forecasts
River Forecasts   /   Forestry Forecasts   /   Aviation Forecasts   /   Radars   /   Features

Terminal Aerodrome Forecast (Highfill)

Pick a Site:
Arkadelphia | El Dorado | Fayetteville | Fort Smith | Harrison | Highfill | Hot Springs | Jonesboro
Little Rock | Monticello | Mountain Home | Pine Bluff | Texarkana
 Forecast 

KXNA 091123Z 0912/1012 31013KT P6SM SKC
     FM091500 31014G23KT P6SM SKC
     FM100000 32007KT P6SM SCT250=


 Latest METARs (Observations) 
How to Decode METARs
15Z KXNA 091453Z COR 31016G26KT 9SM CLR 00/M07 A3010 RMK AO2 PK WND
         30030/1431 SNB08 SLP200 P0000 60000 T00001067 53013
         
14Z KXNA 091353Z 31015G21KT 10SM CLR M01/M07 A3008 RMK AO2 SLP195
         T10111072
         
13Z KXNA 091253Z 31010KT 10SM CLR M02/M07 A3008 RMK AO2 SLP193
         T10171072
         
12Z KXNA 091153Z 30011KT 10SM CLR M02/M08 A3006 RMK AO2 SLP186
         T10171078 10000 21017 55002
         
11Z KXNA 091053Z AUTO 31013KT 10SM CLR M01/M07 A3004 RMK AO2 SLP180
         T10111072
         
10Z KXNA 090953Z AUTO 31013KT 10SM CLR M01/M07 A3004 RMK AO2 SLP179
         T10061072
         
09Z KXNA 090853Z AUTO 31010G17KT 10SM CLR M01/M08 A3007 RMK AO2 SLP187
         T10061078 58006
         
08Z KXNA 090753Z AUTO 32010KT 10SM CLR M01/M08 A3007 RMK AO2 SLP190
         T10061083
         
07Z KXNA 090653Z AUTO 32012G20KT 10SM CLR M01/M08 A3008 RMK AO2 SLP192
         T10061078
         
06Z KXNA 090553Z AUTO 32010KT 10SM CLR M01/M09 A3008 RMK AO2 SLP194
         T10061089 10028 21006 400561006 58006
         
***** Today's Observations (Above) *****


Back to Main Page
http://www.srh.noaa.gov/lzk/qfcst.php

USA.gov is the U.S. government's official web portal to all federal, state and local government web resources and services.